createdAt,value
2023-03-26T00:00:32.851Z,93.42
2023-03-26T00:01:32.863Z,93.21
2023-03-26T00:02:32.845Z,93.16
2023-03-26T00:03:32.750Z,93.12
2023-03-26T00:04:32.690Z,93.12
2023-03-26T00:05:32.631Z,93.63
2023-03-26T00:06:32.843Z,93.01
2023-03-26T00:07:32.600Z,93.26
2023-03-26T00:08:32.551Z,93.21
2023-03-26T00:09:32.544Z,92.91
2023-03-26T00:10:32.465Z,93.21
2023-03-26T00:11:32.426Z,92.80
2023-03-26T00:12:32.587Z,93.05
2023-03-26T00:13:32.365Z,93.57
2023-03-26T00:14:33.144Z,93.42
2023-03-26T00:15:32.350Z,93.32
2023-03-26T00:16:32.339Z,93.36
2023-03-26T00:17:32.441Z,93.73
2023-03-26T00:18:32.222Z,93.01
2023-03-26T00:19:32.185Z,93.42
2023-03-26T00:20:32.094Z,93.52
2023-03-26T00:21:32.052Z,93.32
2023-03-26T00:22:31.802Z,93.12
2023-03-26T00:23:32.170Z,93.12
2023-03-26T00:24:31.999Z,92.91
2023-03-26T00:25:31.962Z,93.32
2023-03-26T00:26:31.883Z,92.95
2023-03-26T00:27:31.922Z,93.21
2023-03-26T00:28:31.843Z,93.12
2023-03-26T00:29:32.022Z,93.21
2023-03-26T00:30:31.777Z,93.21
2023-03-26T00:31:31.745Z,93.21
2023-03-26T00:32:31.778Z,93.32
2023-03-26T00:33:31.714Z,93.12
2023-03-26T00:34:31.854Z,93.01
2023-03-26T00:35:31.636Z,93.01
2023-03-26T00:36:31.626Z,92.91
2023-03-26T00:37:31.521Z,93.01
2023-03-26T00:38:31.537Z,92.70
2023-03-26T00:39:31.524Z,93.21
2023-03-26T00:40:31.699Z,93.21
2023-03-26T00:41:31.428Z,93.42
2023-03-26T00:42:31.413Z,93.36
2023-03-26T00:43:31.253Z,92.91
2023-03-26T00:44:31.301Z,93.32
2023-03-26T00:45:31.276Z,93.73
2023-03-26T00:46:32.164Z,94.04
2023-03-26T00:47:31.251Z,94.18
2023-03-26T00:48:42.257Z,93.83
2023-03-26T00:49:31.091Z,94.24
2023-03-26T00:50:30.978Z,95.10
2023-03-26T00:51:31.109Z,94.85
2023-03-26T00:52:31.215Z,95.17
2023-03-26T00:53:31.040Z,95.17
2023-03-26T00:54:30.968Z,95.98
2023-03-26T00:55:30.908Z,96.55
2023-03-26T00:56:30.989Z,96.44
2023-03-26T00:57:35.970Z,97.16
2023-03-26T00:58:31.034Z,97.37
2023-03-26T00:59:30.844Z,98.19
2023-03-26T01:00:30.762Z,97.99
2023-03-26T01:01:30.829Z,98.08
2023-03-26T01:02:30.746Z,98.65
2023-03-26T01:03:30.712Z,99.52
2023-03-26T01:04:31.225Z,99.11
2023-03-26T01:05:30.613Z,99.42
2023-03-26T01:06:30.542Z,99.26
2023-03-26T01:07:30.524Z,99.77
2023-03-26T01:08:30.506Z,99.77
2023-03-26T01:09:30.479Z,99.98
2023-03-26T01:10:30.633Z,99.99
2023-03-26T01:11:30.425Z,99.99
2023-03-26T01:12:30.357Z,99.88
2023-03-26T01:13:30.326Z,99.77
2023-03-26T01:14:30.273Z,99.88
2023-03-26T01:15:30.323Z,99.99
2023-03-26T01:16:30.458Z,99.77
2023-03-26T01:17:30.788Z,99.57
2023-03-26T01:18:33.599Z,99.67
2023-03-26T01:19:30.125Z,99.47
2023-03-26T01:20:30.095Z,99.72
2023-03-26T01:21:29.955Z,99.47
2023-03-26T01:22:29.806Z,99.62
2023-03-26T01:23:30.465Z,99.41
2023-03-26T01:24:29.939Z,98.85
2023-03-26T01:25:29.914Z,99.26
2023-03-26T01:26:29.906Z,98.96
2023-03-26T01:27:29.884Z,98.44
2023-03-26T01:28:30.040Z,98.33
2023-03-26T01:29:29.812Z,97.87
2023-03-26T01:30:29.728Z,98.13
2023-03-26T01:31:29.686Z,98.03
2023-03-26T01:32:29.734Z,97.62
2023-03-26T01:33:29.665Z,97.41
2023-03-26T01:34:29.772Z,97.31
2023-03-26T01:35:29.624Z,97.10
2023-03-26T01:36:29.571Z,97.20
2023-03-26T01:37:29.519Z,97.31
2023-03-26T01:38:30.262Z,97.62
2023-03-26T01:39:30.109Z,97.72
2023-03-26T01:40:29.608Z,98.24
2023-03-26T01:41:29.140Z,97.62
2023-03-26T01:42:29.324Z,97.92
2023-03-26T01:43:29.336Z,97.92
2023-03-26T01:44:29.253Z,98.24
2023-03-26T01:45:29.246Z,97.72
2023-03-26T01:46:29.418Z,97.52
2023-03-26T01:47:29.234Z,97.52
2023-03-26T01:48:29.124Z,97.20
2023-03-26T01:49:29.087Z,97.31
2023-03-26T01:50:29.034Z,97.00
2023-03-26T01:51:29.043Z,96.18
2023-03-26T01:52:29.159Z,96.48
2023-03-26T01:53:28.974Z,96.39
2023-03-26T01:54:29.141Z,96.08
2023-03-26T01:55:28.872Z,95.67
2023-03-26T01:56:28.581Z,95.83
2023-03-26T01:57:28.791Z,96.65
2023-03-26T01:58:28.804Z,96.44
2023-03-26T01:59:28.787Z,96.34
2023-03-26T02:00:28.919Z,96.34
2023-03-26T02:01:28.637Z,96.08
2023-03-26T02:02:28.826Z,96.34
2023-03-26T02:03:28.672Z,96.59
2023-03-26T02:04:28.293Z,96.34
2023-03-26T02:05:28.271Z,96.75
2023-03-26T02:06:28.281Z,96.23
2023-03-26T02:07:28.195Z,96.08
2023-03-26T02:08:28.153Z,96.48
2023-03-26T02:09:28.124Z,96.34
2023-03-26T02:10:28.143Z,96.55
2023-03-26T02:11:35.433Z,95.62
2023-03-26T02:12:28.031Z,95.62
2023-03-26T02:13:27.981Z,95.10
2023-03-26T02:14:27.951Z,95.01
2023-03-26T02:15:28.015Z,95.52
2023-03-26T02:16:27.912Z,95.10
2023-03-26T02:17:27.869Z,95.87
2023-03-26T02:18:27.823Z,97.99
2023-03-26T02:19:27.773Z,99.01
2023-03-26T02:20:27.762Z,99.32
2023-03-26T02:21:27.760Z,99.99
2023-03-26T02:22:27.665Z,99.99
2023-03-26T02:23:27.631Z,99.99
2023-03-26T02:24:27.614Z,99.99
2023-03-26T02:25:27.568Z,99.99
2023-03-26T02:26:27.596Z,99.99
2023-03-26T02:27:27.539Z,99.99
2023-03-26T02:28:27.473Z,99.99
2023-03-26T02:29:27.432Z,99.99
2023-03-26T02:30:27.405Z,99.99
2023-03-26T02:31:27.395Z,99.99
2023-03-26T02:32:29.302Z,99.99
2023-03-26T02:33:27.306Z,99.99
2023-03-26T02:34:27.252Z,99.99
2023-03-26T02:35:27.304Z,99.99
2023-03-26T02:36:27.348Z,99.99
2023-03-26T02:37:27.239Z,99.99
2023-03-26T02:38:27.108Z,99.99
2023-03-26T02:39:27.073Z,99.99
2023-03-26T02:40:27.053Z,99.99
2023-03-26T02:41:27.002Z,99.99
2023-03-26T02:42:26.982Z,99.99
2023-03-26T02:43:27.016Z,99.99
2023-03-26T02:44:26.909Z,99.99
2023-03-26T02:45:26.947Z,99.99
2023-03-26T02:46:26.874Z,99.99
2023-03-26T02:47:26.816Z,99.99
2023-03-26T02:48:26.820Z,99.99
2023-03-26T02:49:26.725Z,99.99
2023-03-26T02:50:26.700Z,99.99
2023-03-26T02:51:26.663Z,99.99
2023-03-26T02:52:26.619Z,99.99
2023-03-26T02:53:26.669Z,99.99
2023-03-26T02:54:26.561Z,99.99
2023-03-26T02:55:26.521Z,99.99
2023-03-26T02:56:26.479Z,99.99
2023-03-26T02:57:26.471Z,99.99
2023-03-26T02:58:26.446Z,99.99
2023-03-26T02:59:26.442Z,99.99
2023-03-26T03:00:26.349Z,99.99
2023-03-26T03:01:26.375Z,99.99
2023-03-26T03:02:26.389Z,99.99
2023-03-26T03:03:26.359Z,99.99
2023-03-26T03:04:26.266Z,99.99
2023-03-26T03:05:26.199Z,99.99
2023-03-26T03:06:26.140Z,99.99
2023-03-26T03:07:26.136Z,99.99
2023-03-26T03:08:26.063Z,99.99
2023-03-26T03:09:26.040Z,99.99
2023-03-26T03:10:26.063Z,99.99
2023-03-26T03:11:25.972Z,99.99
2023-03-26T03:12:25.930Z,99.99
2023-03-26T03:13:25.899Z,99.99
2023-03-26T03:14:25.857Z,99.99
2023-03-26T03:15:25.826Z,99.99
2023-03-26T03:16:25.881Z,99.99
2023-03-26T03:17:25.778Z,99.99
2023-03-26T03:18:25.732Z,99.99
2023-03-26T03:19:25.744Z,99.99
2023-03-26T03:20:25.657Z,99.99
2023-03-26T03:21:25.613Z,99.99
2023-03-26T03:22:25.588Z,99.99
2023-03-26T03:23:25.541Z,99.99
2023-03-26T03:24:25.557Z,99.66
2023-03-26T03:25:25.472Z,99.99
2023-03-26T03:26:25.453Z,99.91
2023-03-26T03:27:25.402Z,99.77
2023-03-26T03:28:25.378Z,99.35
2023-03-26T03:29:25.341Z,99.87
2023-03-26T03:30:25.440Z,99.99
2023-03-26T03:31:25.317Z,99.87
2023-03-26T03:32:25.247Z,99.99
2023-03-26T03:33:25.204Z,99.99
2023-03-26T03:34:25.170Z,99.99
2023-03-26T03:35:25.166Z,99.99
2023-03-26T03:36:25.168Z,99.99
2023-03-26T03:37:25.064Z,99.97
2023-03-26T03:38:25.033Z,99.46
2023-03-26T03:39:25.000Z,99.97
2023-03-26T03:40:25.025Z,99.46
2023-03-26T03:41:24.925Z,99.46
2023-03-26T03:42:24.883Z,99.25
2023-03-26T03:43:24.907Z,99.97
2023-03-26T03:44:24.827Z,99.81
2023-03-26T03:45:24.787Z,99.71
2023-03-26T03:46:24.840Z,99.91
2023-03-26T03:47:24.748Z,99.99
2023-03-26T03:48:24.688Z,99.99
2023-03-26T03:49:24.648Z,99.99
2023-03-26T03:50:24.656Z,99.99
2023-03-26T03:51:24.629Z,99.99
2023-03-26T03:52:24.532Z,99.99
2023-03-26T03:53:24.509Z,99.99
2023-03-26T03:54:24.476Z,99.81
2023-03-26T03:55:24.439Z,99.99
2023-03-26T03:56:24.464Z,99.99
2023-03-26T03:57:24.372Z,99.99
2023-03-26T03:58:24.342Z,99.91
2023-03-26T03:59:24.297Z,99.99
2023-03-26T04:00:24.288Z,99.81
2023-03-26T04:01:24.292Z,99.99
2023-03-26T04:02:24.249Z,99.99
2023-03-26T04:03:34.157Z,99.99
2023-03-26T04:04:24.169Z,99.99
2023-03-26T04:05:24.095Z,99.99
2023-03-26T04:06:24.139Z,99.99
2023-03-26T04:07:24.021Z,99.99
2023-03-26T04:08:23.998Z,99.99
2023-03-26T04:09:23.971Z,99.99
2023-03-26T04:10:23.918Z,99.99
2023-03-26T04:11:23.920Z,99.99
2023-03-26T04:12:23.906Z,99.99
2023-03-26T04:13:23.808Z,99.99
2023-03-26T04:14:23.775Z,99.99
2023-03-26T04:15:23.749Z,99.99
2023-03-26T04:16:23.714Z,99.99
2023-03-26T04:17:23.736Z,99.91
2023-03-26T04:18:23.641Z,99.66
2023-03-26T04:19:23.600Z,99.35
2023-03-26T04:20:23.564Z,99.40
2023-03-26T04:21:23.530Z,99.66
2023-03-26T04:22:23.501Z,99.25
2023-03-26T04:23:23.512Z,99.15
2023-03-26T04:24:23.424Z,99.56
2023-03-26T04:25:23.400Z,99.56
2023-03-26T04:26:23.356Z,99.46
2023-03-26T04:27:23.375Z,99.77
2023-03-26T04:28:23.289Z,99.56
2023-03-26T04:29:23.285Z,99.25
2023-03-26T04:30:23.234Z,99.71
2023-03-26T04:31:23.207Z,99.46
2023-03-26T04:32:23.205Z,99.56
2023-03-26T04:33:23.114Z,99.46
2023-03-26T04:34:23.089Z,98.94
2023-03-26T04:35:23.078Z,99.66
2023-03-26T04:36:23.024Z,98.63
2023-03-26T04:37:23.033Z,98.63
2023-03-26T04:38:22.943Z,98.43
2023-03-26T04:39:22.896Z,97.91
2023-03-26T04:40:22.873Z,98.33
2023-03-26T04:41:22.833Z,98.12
2023-03-26T04:42:22.794Z,98.07
2023-03-26T04:43:22.815Z,98.18
2023-03-26T04:44:22.718Z,98.74
2023-03-26T04:45:23.046Z,98.49
2023-03-26T04:46:22.685Z,98.38
2023-03-26T04:47:22.667Z,98.59
2023-03-26T04:48:22.645Z,99.00
2023-03-26T04:49:22.559Z,99.25
2023-03-26T04:50:22.530Z,99.00
2023-03-26T04:51:22.494Z,99.05
2023-03-26T04:52:22.449Z,99.05
2023-03-26T04:53:22.492Z,99.05
2023-03-26T04:54:22.373Z,99.15
2023-03-26T04:55:22.334Z,99.35
2023-03-26T04:56:22.310Z,99.05
2023-03-26T04:57:22.273Z,99.05
2023-03-26T04:58:22.261Z,99.46
2023-03-26T04:59:22.315Z,99.56
2023-03-26T05:00:22.174Z,99.46
2023-03-26T05:01:22.179Z,99.35
2023-03-26T05:02:22.101Z,99.15
2023-03-26T05:03:22.084Z,99.46
2023-03-26T05:04:22.113Z,99.35
2023-03-26T05:05:22.070Z,99.46
2023-03-26T05:06:22.035Z,99.10
2023-03-26T05:07:21.981Z,99.51
2023-03-26T05:08:22.001Z,99.77
2023-03-26T05:09:21.857Z,99.41
2023-03-26T05:10:21.837Z,99.56
2023-03-26T05:11:21.852Z,99.56
2023-03-26T05:12:21.756Z,99.72
2023-03-26T05:13:21.724Z,99.15
2023-03-26T05:14:21.695Z,99.21
2023-03-26T05:15:21.661Z,99.77
2023-03-26T05:16:21.672Z,98.94
2023-03-26T05:17:21.568Z,98.94
2023-03-26T05:18:21.547Z,99.10
2023-03-26T05:19:21.557Z,99.05
2023-03-26T05:20:21.473Z,98.90
2023-03-26T05:21:21.434Z,98.90
2023-03-26T05:22:21.403Z,98.38
2023-03-26T05:23:21.514Z,98.59
2023-03-26T05:24:21.388Z,98.49
2023-03-26T05:25:21.308Z,97.66
2023-03-26T05:26:21.286Z,97.56
2023-03-26T05:27:21.226Z,97.66
2023-03-26T05:28:21.199Z,97.77
2023-03-26T05:29:21.217Z,97.66
2023-03-26T05:30:21.163Z,97.66
2023-03-26T05:31:21.098Z,96.64
2023-03-26T05:32:21.057Z,96.59
2023-03-26T05:33:21.091Z,96.69
2023-03-26T05:34:21.055Z,96.33
2023-03-26T05:35:20.987Z,96.48
2023-03-26T05:36:20.933Z,96.33
2023-03-26T05:37:20.883Z,95.71
2023-03-26T05:38:20.906Z,95.92
2023-03-26T05:39:20.916Z,95.71
2023-03-26T05:40:20.786Z,95.87
2023-03-26T05:41:20.747Z,96.08
2023-03-26T05:42:20.712Z,94.95
2023-03-26T05:43:20.679Z,95.46
2023-03-26T05:44:20.643Z,94.70
2023-03-26T05:45:20.715Z,94.90
2023-03-26T05:46:20.667Z,95.21
2023-03-26T05:47:20.545Z,95.10
2023-03-26T05:48:20.513Z,95.05
2023-03-26T05:49:20.485Z,95.52
2023-03-26T05:50:20.441Z,95.42
2023-03-26T05:51:20.467Z,95.10
2023-03-26T05:52:20.380Z,95.83
2023-03-26T05:53:20.344Z,95.31
2023-03-26T05:54:20.306Z,95.62
2023-03-26T05:55:20.309Z,95.42
2023-03-26T05:56:20.230Z,95.67
2023-03-26T05:57:20.284Z,96.75
2023-03-26T05:58:20.160Z,95.62
2023-03-26T05:59:20.124Z,96.44
2023-03-26T06:00:20.108Z,96.39
2023-03-26T06:01:20.055Z,96.80
2023-03-26T06:02:20.039Z,96.39
2023-03-26T06:03:20.221Z,97.27
2023-03-26T06:04:20.018Z,97.62
2023-03-26T06:05:19.930Z,98.08
2023-03-26T06:06:19.893Z,97.88
2023-03-26T06:07:19.942Z,97.88
2023-03-26T06:08:19.822Z,98.13
2023-03-26T06:09:19.837Z,98.24
2023-03-26T06:10:19.759Z,98.65
2023-03-26T06:11:19.717Z,99.67
2023-03-26T06:12:19.676Z,98.96
2023-03-26T06:13:19.657Z,99.10
2023-03-26T06:14:19.615Z,99.37
2023-03-26T06:15:19.630Z,98.85
2023-03-26T06:16:26.242Z,99.41
2023-03-26T06:17:19.567Z,98.59
2023-03-26T06:18:19.533Z,98.90
2023-03-26T06:19:19.468Z,99.31
2023-03-26T06:20:19.442Z,99.41
2023-03-26T06:21:19.390Z,98.90
2023-03-26T06:22:19.397Z,98.18
2023-03-26T06:23:19.304Z,97.77
2023-03-26T06:24:19.262Z,96.43
2023-03-26T06:25:19.232Z,96.64
2023-03-26T06:26:19.217Z,97.25
2023-03-26T06:27:19.217Z,96.94
2023-03-26T06:28:19.140Z,97.25
2023-03-26T06:29:19.097Z,97.10
2023-03-26T06:30:19.064Z,95.42
2023-03-26T06:31:19.109Z,95.31
2023-03-26T06:32:20.452Z,95.36
2023-03-26T06:33:19.011Z,95.56
2023-03-26T06:34:18.927Z,95.87
2023-03-26T06:35:18.890Z,95.31
2023-03-26T06:36:18.919Z,95.21
2023-03-26T06:37:18.820Z,94.18
2023-03-26T06:38:18.798Z,94.14
2023-03-26T06:39:18.814Z,93.46
2023-03-26T06:40:18.729Z,93.67
2023-03-26T06:41:18.698Z,93.26
2023-03-26T06:42:18.668Z,92.95
2023-03-26T06:43:18.708Z,93.36
2023-03-26T06:44:18.581Z,92.23
2023-03-26T06:45:18.686Z,92.13
2023-03-26T06:46:18.561Z,92.50
2023-03-26T06:47:18.481Z,92.50
2023-03-26T06:48:18.445Z,91.84
2023-03-26T06:49:18.496Z,91.57
2023-03-26T06:50:18.385Z,91.53
2023-03-26T06:51:18.349Z,91.33
2023-03-26T06:52:18.311Z,91.63
2023-03-26T06:53:21.914Z,91.22
2023-03-26T06:54:18.243Z,91.74
2023-03-26T06:55:18.280Z,91.53
2023-03-26T06:56:18.176Z,90.71
2023-03-26T06:57:18.136Z,91.53
2023-03-26T06:58:18.112Z,91.12
2023-03-26T06:59:18.076Z,90.61
2023-03-26T07:00:18.063Z,90.20
2023-03-26T07:01:18.116Z,90.05
2023-03-26T07:02:17.977Z,90.36
2023-03-26T07:03:17.948Z,90.46
2023-03-26T07:04:17.933Z,90.05
2023-03-26T07:05:17.892Z,90.01
2023-03-26T07:06:17.894Z,90.32
2023-03-26T07:07:17.807Z,89.90
2023-03-26T07:08:17.777Z,89.19
2023-03-26T07:09:17.734Z,89.04
2023-03-26T07:10:17.707Z,89.04
2023-03-26T07:11:17.677Z,88.33
2023-03-26T07:12:17.703Z,88.74
2023-03-26T07:13:17.605Z,89.04
2023-03-26T07:14:17.600Z,89.56
2023-03-26T07:15:17.539Z,89.36
2023-03-26T07:16:17.578Z,89.04
2023-03-26T07:17:17.480Z,89.76
2023-03-26T07:18:17.508Z,89.81
2023-03-26T07:19:17.421Z,90.17
2023-03-26T07:20:17.379Z,90.37
2023-03-26T07:21:17.403Z,89.97
2023-03-26T07:22:17.314Z,90.28
2023-03-26T07:23:17.293Z,90.23
2023-03-26T07:24:17.241Z,90.37
2023-03-26T07:25:17.207Z,89.72
2023-03-26T07:26:17.175Z,89.04
2023-03-26T07:27:17.198Z,89.36
2023-03-26T07:28:17.105Z,89.00
2023-03-26T07:29:17.078Z,88.94
2023-03-26T07:30:17.047Z,88.94
2023-03-26T07:31:17.069Z,90.11
2023-03-26T07:32:18.883Z,90.32
2023-03-26T07:33:16.999Z,89.95
2023-03-26T07:34:16.912Z,90.56
2023-03-26T07:35:16.919Z,91.14
2023-03-26T07:36:16.858Z,90.83
2023-03-26T07:37:16.810Z,91.30
2023-03-26T07:38:16.773Z,90.07
2023-03-26T07:39:16.797Z,90.48
2023-03-26T07:40:16.711Z,90.58
2023-03-26T07:41:16.677Z,90.37
2023-03-26T07:42:16.651Z,91.82
2023-03-26T07:43:16.619Z,91.40
2023-03-26T07:44:16.582Z,90.79
2023-03-26T07:45:16.598Z,90.28
2023-03-26T07:46:16.528Z,90.44
2023-03-26T07:47:16.472Z,90.44
2023-03-26T07:48:16.443Z,89.78
2023-03-26T07:49:16.412Z,90.19
2023-03-26T07:50:18.167Z,90.50
2023-03-26T07:51:16.393Z,88.92
2023-03-26T07:52:16.308Z,88.92
2023-03-26T07:53:16.283Z,89.23
2023-03-26T07:54:16.252Z,88.00
2023-03-26T07:55:16.227Z,87.59
2023-03-26T07:56:16.213Z,87.49
2023-03-26T07:57:16.223Z,86.67
2023-03-26T07:58:16.117Z,87.53
2023-03-26T07:59:16.076Z,87.79
2023-03-26T08:00:16.400Z,87.02
2023-03-26T08:01:16.306Z,87.79
2023-03-26T08:02:16.268Z,88.00
2023-03-26T08:03:16.143Z,87.85
2023-03-26T08:04:23.940Z,86.83
2023-03-26T08:05:15.924Z,86.02
2023-03-26T08:06:15.862Z,86.59
2023-03-26T08:07:15.823Z,86.18
2023-03-26T08:08:15.788Z,86.79
2023-03-26T08:09:15.866Z,85.26
2023-03-26T08:10:15.740Z,84.14
2023-03-26T08:11:15.712Z,84.44
2023-03-26T08:12:15.668Z,84.03
2023-03-26T08:13:15.632Z,84.03
2023-03-26T08:14:15.591Z,83.73
2023-03-26T08:15:15.612Z,83.73
2023-03-26T08:16:15.701Z,83.01
2023-03-26T08:17:15.494Z,84.14
2023-03-26T08:18:15.466Z,83.38
2023-03-26T08:19:15.421Z,82.87
2023-03-26T08:20:15.394Z,82.26
2023-03-26T08:21:15.409Z,81.13
2023-03-26T08:22:15.330Z,81.34
2023-03-26T08:23:15.307Z,81.44
2023-03-26T08:24:15.273Z,81.65
2023-03-26T08:25:15.229Z,82.56
2023-03-26T08:26:15.260Z,81.13
2023-03-26T08:27:15.167Z,81.65
2023-03-26T08:28:15.132Z,80.62
2023-03-26T08:29:15.098Z,81.03
2023-03-26T08:30:15.112Z,81.34
2023-03-26T08:31:15.103Z,80.93
2023-03-26T08:32:15.058Z,81.20
2023-03-26T08:33:14.983Z,81.30
2023-03-26T08:34:14.945Z,79.97
2023-03-26T08:35:14.907Z,81.30
2023-03-26T08:36:14.889Z,80.48
2023-03-26T08:37:14.851Z,80.99
2023-03-26T08:38:14.857Z,79.43
2023-03-26T08:39:14.784Z,79.43
2023-03-26T08:40:14.756Z,79.93
2023-03-26T08:41:14.722Z,79.69
2023-03-26T08:42:14.698Z,79.63
2023-03-26T08:43:14.652Z,80.55
2023-03-26T08:44:14.679Z,80.44
2023-03-26T08:45:14.609Z,80.44
2023-03-26T08:46:14.602Z,79.73
2023-03-26T08:47:14.528Z,78.81
2023-03-26T08:48:14.504Z,79.32
2023-03-26T08:49:14.471Z,79.73
2023-03-26T08:50:14.496Z,79.63
2023-03-26T08:51:14.407Z,79.43
2023-03-26T08:52:14.384Z,79.73
2023-03-26T08:53:14.386Z,79.02
2023-03-26T08:54:14.309Z,78.91
2023-03-26T08:55:14.274Z,79.73
2023-03-26T08:56:14.304Z,78.95
2023-03-26T08:57:14.300Z,78.50
2023-03-26T08:58:14.198Z,78.41
2023-03-26T08:59:14.145Z,78.16
2023-03-26T09:00:14.125Z,78.23
2023-03-26T09:01:14.092Z,77.45
2023-03-26T09:02:14.061Z,77.72
2023-03-26T09:03:14.075Z,77.92
2023-03-26T09:04:14.043Z,77.62
2023-03-26T09:05:13.952Z,77.51
2023-03-26T09:06:13.922Z,76.80
2023-03-26T09:07:13.902Z,76.80
2023-03-26T09:08:13.918Z,75.92
2023-03-26T09:09:18.810Z,75.82
2023-03-26T09:10:13.808Z,76.32
2023-03-26T09:11:13.769Z,75.82
2023-03-26T09:12:13.738Z,76.32
2023-03-26T09:13:13.710Z,76.63
2023-03-26T09:14:13.729Z,76.63
2023-03-26T09:15:13.646Z,76.84
2023-03-26T09:16:13.660Z,76.29
2023-03-26T09:17:13.617Z,77.37
2023-03-26T09:18:13.610Z,75.85
2023-03-26T09:19:13.521Z,75.81
2023-03-26T09:20:13.554Z,74.28
2023-03-26T09:21:13.521Z,73.97
2023-03-26T09:22:13.434Z,73.97
2023-03-26T09:23:15.059Z,74.58
2023-03-26T09:24:13.363Z,75.71
2023-03-26T09:25:13.340Z,74.35
2023-03-26T09:26:13.366Z,75.16
2023-03-26T09:27:13.293Z,74.65
2023-03-26T09:28:13.258Z,74.04
2023-03-26T09:29:13.212Z,73.94
2023-03-26T09:30:13.321Z,74.11
2023-03-26T09:31:13.324Z,72.38
2023-03-26T09:32:13.141Z,72.48
2023-03-26T09:33:13.088Z,72.52
2023-03-26T09:34:13.091Z,73.30
2023-03-26T09:35:13.602Z,73.54
2023-03-26T09:36:13.010Z,73.94
2023-03-26T09:37:13.045Z,72.31
2023-03-26T09:38:12.966Z,72.31
2023-03-26T09:39:12.910Z,72.62
2023-03-26T09:40:12.982Z,73.54
2023-03-26T09:41:12.871Z,73.94
2023-03-26T09:42:12.840Z,73.30
2023-03-26T09:43:12.906Z,73.40
2023-03-26T09:44:12.781Z,73.43
2023-03-26T09:45:12.743Z,72.41
2023-03-26T09:46:12.755Z,71.87
2023-03-26T09:47:12.705Z,72.28
2023-03-26T09:48:12.667Z,71.26
2023-03-26T09:49:12.672Z,70.89
2023-03-26T09:50:12.611Z,71.40
2023-03-26T09:51:12.673Z,70.92
2023-03-26T09:52:12.589Z,71.36
2023-03-26T09:53:12.500Z,72.55
2023-03-26T09:54:12.542Z,71.77
2023-03-26T09:55:12.489Z,73.47
2023-03-26T09:56:12.416Z,72.08
2023-03-26T09:57:12.408Z,73.71
2023-03-26T09:58:12.343Z,72.58
2023-03-26T09:59:12.315Z,72.48
2023-03-26T10:00:12.308Z,71.77
2023-03-26T10:01:12.406Z,72.48
2023-03-26T10:02:12.231Z,72.45
2023-03-26T10:03:12.207Z,72.38
2023-03-26T10:04:12.216Z,72.48
2023-03-26T10:05:12.222Z,72.55
2023-03-26T10:06:12.096Z,72.14
2023-03-26T10:07:12.132Z,70.99
2023-03-26T10:08:12.033Z,70.89
2023-03-26T10:09:12.056Z,70.55
2023-03-26T10:10:12.006Z,70.42
2023-03-26T10:11:11.943Z,69.09
2023-03-26T10:12:11.936Z,68.25
2023-03-26T10:13:14.816Z,68.86
2023-03-26T10:14:11.935Z,68.86
2023-03-26T10:15:11.818Z,69.17
2023-03-26T10:16:11.801Z,69.37
2023-03-26T10:17:11.782Z,68.05
2023-03-26T10:18:26.980Z,68.05
2023-03-26T10:19:11.785Z,67.54
2023-03-26T10:20:11.684Z,67.06
2023-03-26T10:21:11.655Z,67.80
2023-03-26T10:22:11.639Z,67.43
2023-03-26T10:23:11.607Z,68.18
2023-03-26T10:24:11.617Z,69.16
2023-03-26T10:25:11.513Z,68.75
2023-03-26T10:26:11.513Z,68.65
2023-03-26T10:27:11.496Z,68.68
2023-03-26T10:28:11.452Z,68.79
2023-03-26T10:29:11.471Z,70.01
2023-03-26T10:30:11.379Z,69.49
2023-03-26T10:31:11.378Z,69.29
2023-03-26T10:32:11.344Z,69.97
2023-03-26T10:33:11.371Z,69.12
2023-03-26T10:34:28.625Z,70.34
2023-03-26T10:35:11.292Z,70.99
2023-03-26T10:36:11.248Z,72.41
2023-03-26T10:37:11.158Z,72.82
2023-03-26T10:38:11.135Z,71.06
2023-03-26T10:39:11.359Z,70.62
2023-03-26T10:40:11.107Z,70.01
2023-03-26T10:41:11.131Z,69.40
2023-03-26T10:42:11.026Z,70.34
2023-03-26T10:43:12.525Z,70.78
2023-03-26T10:44:10.971Z,70.58
2023-03-26T10:45:10.949Z,70.99
2023-03-26T10:46:10.986Z,71.63
2023-03-26T10:47:10.937Z,71.94
2023-03-26T10:48:10.905Z,72.45
2023-03-26T10:49:10.797Z,72.55
2023-03-26T10:50:10.898Z,73.67
2023-03-26T10:51:10.761Z,72.58
2023-03-26T10:52:10.708Z,73.74
2023-03-26T10:53:10.844Z,73.74
2023-03-26T10:54:10.664Z,73.94
2023-03-26T10:55:10.610Z,73.94
2023-03-26T10:56:10.852Z,74.15
2023-03-26T10:57:10.568Z,73.84
2023-03-26T10:58:10.508Z,74.15
2023-03-26T10:59:10.546Z,73.57
2023-03-26T11:00:10.473Z,72.41
2023-03-26T11:01:10.459Z,72.38
2023-03-26T11:02:10.422Z,72.08
2023-03-26T11:03:10.393Z,71.94
2023-03-26T11:04:10.326Z,72.41
2023-03-26T11:05:10.396Z,71.77
2023-03-26T11:06:10.286Z,70.82
2023-03-26T11:07:10.239Z,70.31
2023-03-26T11:08:10.229Z,69.26
2023-03-26T11:09:10.202Z,69.17
2023-03-26T11:10:11.069Z,69.20
2023-03-26T11:11:10.177Z,69.91
2023-03-26T11:12:26.977Z,69.50
2023-03-26T11:13:10.053Z,68.49
2023-03-26T11:14:10.021Z,68.79
2023-03-26T11:15:10.068Z,69.60
2023-03-26T11:16:10.209Z,69.94
2023-03-26T11:17:10.327Z,67.10
2023-03-26T11:18:10.165Z,67.83
2023-03-26T11:19:10.151Z,68.44
2023-03-26T11:20:09.981Z,68.96
2023-03-26T11:21:19.554Z,68.65
2023-03-26T11:22:09.830Z,68.75
2023-03-26T11:23:10.174Z,69.36
2023-03-26T11:24:10.064Z,69.70
2023-03-26T11:25:09.957Z,69.60
2023-03-26T11:26:09.913Z,69.74
2023-03-26T11:27:15.306Z,69.40
2023-03-26T11:28:10.534Z,67.57
2023-03-26T11:29:32.854Z,66.86
2023-03-26T11:30:09.844Z,67.16
2023-03-26T11:31:09.670Z,67.44
2023-03-26T11:32:09.543Z,68.08
2023-03-26T11:33:09.445Z,68.08
2023-03-26T11:34:10.389Z,68.28
2023-03-26T11:35:09.808Z,67.97
2023-03-26T11:36:09.616Z,68.32
2023-03-26T11:37:09.533Z,68.92
2023-03-26T11:38:09.426Z,68.52
2023-03-26T11:39:09.515Z,70.04
2023-03-26T11:40:09.529Z,69.53
2023-03-26T11:41:09.665Z,68.62
2023-03-26T11:42:09.449Z,68.72
2023-03-26T11:43:09.431Z,68.49
2023-03-26T11:44:10.381Z,68.49
2023-03-26T11:45:09.399Z,69.06
2023-03-26T11:46:09.411Z,66.93
2023-03-26T11:47:10.486Z,67.06
2023-03-26T11:48:09.450Z,66.76
2023-03-26T11:49:09.848Z,67.77
2023-03-26T11:50:09.228Z,67.88
2023-03-26T11:51:08.914Z,67.97
2023-03-26T11:52:09.128Z,67.50
2023-03-26T11:53:09.914Z,68.44
2023-03-26T11:54:10.877Z,68.58
2023-03-26T11:55:09.065Z,69.29
2023-03-26T11:56:09.068Z,69.60
2023-03-26T11:57:10.852Z,69.16
2023-03-26T11:58:09.777Z,68.32
2023-03-26T11:59:08.720Z,68.72
2023-03-26T12:00:08.644Z,66.86
2023-03-26T12:01:08.612Z,66.52
2023-03-26T12:02:08.676Z,65.68
2023-03-26T12:03:08.607Z,65.68
2023-03-26T12:04:08.544Z,65.58
2023-03-26T12:05:08.538Z,66.08
2023-03-26T12:06:08.446Z,65.78
2023-03-26T12:07:08.418Z,67.16
2023-03-26T12:08:08.464Z,67.77
2023-03-26T12:09:08.372Z,67.36
2023-03-26T12:10:18.190Z,66.93
2023-03-26T12:11:08.368Z,65.48
2023-03-26T12:12:08.268Z,64.46
2023-03-26T12:13:08.352Z,64.46
2023-03-26T12:14:08.215Z,64.53
2023-03-26T12:15:08.242Z,64.84
2023-03-26T12:16:08.253Z,63.32
2023-03-26T12:17:08.206Z,64.67
2023-03-26T12:18:08.158Z,63.51
2023-03-26T12:19:08.101Z,65.60
2023-03-26T12:20:08.111Z,66.92
2023-03-26T12:21:08.733Z,67.63
2023-03-26T12:22:07.976Z,67.53
2023-03-26T12:23:08.113Z,66.99
2023-03-26T12:24:07.918Z,66.52
2023-03-26T12:25:07.881Z,66.65
2023-03-26T12:26:07.854Z,65.83
2023-03-26T12:27:07.834Z,66.35
2023-03-26T12:28:07.781Z,66.55
2023-03-26T12:29:07.828Z,67.22
2023-03-26T12:30:07.722Z,68.04
2023-03-26T12:31:07.704Z,67.22
2023-03-26T12:32:07.729Z,67.05
2023-03-26T12:33:07.662Z,66.04
2023-03-26T12:34:07.744Z,66.24
2023-03-26T12:35:07.653Z,66.68
2023-03-26T12:36:07.880Z,66.61
2023-03-26T12:37:07.809Z,67.08
2023-03-26T12:38:07.776Z,67.43
2023-03-26T12:39:16.571Z,67.93
2023-03-26T12:40:12.959Z,67.19
2023-03-26T12:41:07.690Z,67.60
2023-03-26T12:44:43.117Z,68.10
2023-03-26T12:44:48.007Z,67.19
2023-03-26T12:44:53.470Z,67.08
2023-03-26T12:45:07.755Z,67.90
2023-03-26T12:47:56.060Z,67.93
2023-03-26T12:48:00.516Z,67.73
2023-03-26T12:48:07.367Z,68.44
2023-03-26T12:49:07.298Z,68.13
2023-03-26T12:50:07.383Z,67.90
2023-03-26T12:51:07.366Z,67.69
2023-03-26T12:52:08.911Z,67.46